Time;durP1;ratioP1;P1;durP2;ratioP2;P2;SDS_P1;SDS_P2;PMS_P1;PMS_P2;Temp;Humidity;BMP_temperature;BMP_pressure;BME280_temperature;BME280_humidity;BME280_pressure;Samples;Min_cycle;Max_cycle;Signal;HPM_P1;HPM_P2
2022/03/06 00:00:18;;;;;;;78.53;37.00;;;3.30;99.90;;;;;;5050824;28;20105;-55
2022/03/06 00:02:44;;;;;;;82.40;37.38;;;3.30;99.90;;;;;;5050548;28;20052;-55
2022/03/06 00:05:09;;;;;;;82.20;37.70;;;3.30;99.90;;;;;;5050713;28;20021;-55
2022/03/06 00:07:35;;;;;;;82.38;37.78;;;3.30;99.90;;;;;;5050638;28;20056;-55
2022/03/06 00:10:03;;;;;;;83.78;36.67;;;3.30;99.90;;;;;;5051032;28;20029;-55
2022/03/06 00:12:29;;;;;;;83.32;36.53;;;3.30;99.90;;;;;;5050704;28;20094;-55
2022/03/06 00:14:55;;;;;;;86.78;36.13;;;3.20;99.90;;;;;;5049136;28;20029;-57
2022/03/06 00:17:20;;;;;;;80.22;35.08;;;3.20;99.90;;;;;;5050698;28;20104;-56
2022/03/06 00:19:46;;;;;;;87.03;37.58;;;3.20;99.90;;;;;;5050309;28;20064;-57
2022/03/06 00:22:11;;;;;;;77.40;35.67;;;3.20;99.90;;;;;;5053145;28;20025;-57
2022/03/06 00:24:37;;;;;;;80.43;35.92;;;3.10;99.90;;;;;;5054902;28;20394;-57
2022/03/06 00:27:03;;;;;;;83.72;35.72;;;3.10;99.90;;;;;;5054431;28;20106;-56
2022/03/06 00:29:29;;;;;;;86.13;37.58;;;3.10;99.90;;;;;;5053930;28;20027;-56
2022/03/06 00:31:55;;;;;;;85.43;37.20;;;3.10;99.90;;;;;;5054585;28;20045;-57
2022/03/06 00:34:20;;;;;;;84.85;36.13;;;3.10;99.90;;;;;;5052932;28;20128;-57
2022/03/06 00:36:46;;;;;;;81.72;35.53;;;3.00;99.90;;;;;;5053916;28;20052;-56
2022/03/06 00:39:11;;;;;;;81.57;35.55;;;3.10;99.90;;;;;;5053975;28;20039;-56
2022/03/06 00:41:38;;;;;;;81.15;34.80;;;3.00;99.90;;;;;;5054411;28;20021;-56
2022/03/06 00:44:04;;;;;;;81.18;36.35;;;3.00;99.90;;;;;;5052733;28;20075;-56
2022/03/06 00:46:30;;;;;;;87.22;36.72;;;3.00;99.90;;;;;;5053988;28;20044;-56
2022/03/06 00:48:55;;;;;;;84.78;37.30;;;3.00;99.90;;;;;;5053970;28;20053;-57
2022/03/06 00:51:21;;;;;;;82.13;35.63;;;3.00;99.90;;;;;;5053756;28;20382;-57
2022/03/06 00:53:46;;;;;;;82.18;35.80;;;3.00;99.90;;;;;;5053966;28;20087;-57
2022/03/06 00:56:12;;;;;;;78.13;35.67;;;2.90;99.90;;;;;;5052674;28;20121;-57
2022/03/06 00:58:38;;;;;;;80.25;35.38;;;2.90;99.90;;;;;;5053928;28;20083;-57
2022/03/06 01:01:04;;;;;;;75.40;34.45;;;2.90;99.90;;;;;;5053862;28;20532;-57
2022/03/06 01:03:31;;;;;;;84.68;36.78;;;2.90;99.90;;;;;;5053823;28;20072;-57
2022/03/06 01:05:57;;;;;;;82.13;36.15;;;2.90;99.90;;;;;;5054242;28;20032;-57
2022/03/06 01:08:23;;;;;;;83.97;36.55;;;2.90;99.90;;;;;;5053926;28;20033;-56
2022/03/06 01:10:50;;;;;;;79.32;36.08;;;2.90;99.90;;;;;;5053537;28;20031;-59
2022/03/06 01:13:17;;;;;;;81.63;35.70;;;2.90;99.90;;;;;;5053626;28;20028;-56
2022/03/06 01:15:43;;;;;;;80.00;35.58;;;2.80;99.90;;;;;;5053484;28;20386;-56
2022/03/06 01:18:09;;;;;;;81.45;34.15;;;2.80;99.90;;;;;;5053461;28;20029;-56
2022/03/06 01:20:37;;;;;;;78.55;34.47;;;2.80;99.90;;;;;;5053903;28;20039;-56
2022/03/06 01:23:03;;;;;;;84.40;36.30;;;2.80;99.90;;;;;;5053209;28;20029;-56
2022/03/06 01:25:29;;;;;;;79.05;34.00;;;2.80;99.90;;;;;;5053121;28;20024;-56
2022/03/06 01:27:55;;;;;;;79.82;35.03;;;2.80;99.90;;;;;;5051775;28;20029;-56
2022/03/06 01:30:21;;;;;;;77.93;35.10;;;2.70;99.90;;;;;;5053048;28;20475;-56
2022/03/06 01:32:48;;;;;;;82.50;34.72;;;2.70;99.90;;;;;;5050713;28;20048;-56
2022/03/06 01:35:14;;;;;;;83.47;36.03;;;2.70;99.90;;;;;;5052522;28;20390;-56
2022/03/06 01:37:39;;;;;;;78.30;35.13;;;2.70;99.90;;;;;;5053087;28;20029;-56
2022/03/06 01:40:07;;;;;;;87.03;35.88;;;2.70;99.90;;;;;;5052021;28;20029;-56
2022/03/06 01:42:33;;;;;;;79.82;35.45;;;2.70;99.90;;;;;;5053140;28;20485;-57
2022/03/06 01:44:59;;;;;;;79.07;34.65;;;2.70;99.90;;;;;;5053286;28;20015;-57
2022/03/06 01:47:40;;;;;;;72.28;34.60;;;2.60;99.90;;;;;;5052943;28;20108;-57
2022/03/06 01:50:18;;;;;;;79.07;35.15;;;2.60;99.90;;;;;;5052811;28;20021;-57
2022/03/06 01:52:45;;;;;;;77.18;32.65;;;2.60;99.90;;;;;;5052738;28;20017;-57
2022/03/06 01:55:15;;;;;;;78.03;34.17;;;2.50;99.90;;;;;;5053104;28;20112;-57
2022/03/06 01:57:41;;;;;;;80.95;34.33;;;2.50;99.90;;;;;;5053035;28;20033;-56
2022/03/06 02:00:12;;;;;;;81.97;36.35;;;2.50;99.90;;;;;;5052319;28;20509;-56
2022/03/06 02:02:38;;;;;;;79.80;34.95;;;2.50;99.90;;;;;;5052196;28;20017;-57
2022/03/06 02:05:04;;;;;;;78.13;35.78;;;2.50;99.90;;;;;;5052860;28;20037;-57
2022/03/06 02:07:30;;;;;;;80.68;36.40;;;2.50;99.90;;;;;;5052702;28;20050;-57
2022/03/06 02:09:57;;;;;;;78.85;35.33;;;2.50;99.90;;;;;;5052629;28;20033;-57
2022/03/06 02:12:24;;;;;;;77.63;36.10;;;2.50;99.90;;;;;;5052018;28;20090;-57
2022/03/06 02:14:55;;;;;;;78.20;35.95;;;2.50;99.90;;;;;;5052547;28;20052;-57
2022/03/06 02:17:22;;;;;;;83.35;36.97;;;2.50;99.90;;;;;;5052406;28;20542;-57
2022/03/06 02:19:58;;;;;;;81.93;36.80;;;2.40;99.90;;;;;;5052508;28;20052;-56
2022/03/06 02:22:32;;;;;;;87.20;37.00;;;2.40;99.90;;;;;;5053177;28;20465;-56
2022/03/06 02:24:59;;;;;;;75.05;34.13;;;2.40;99.90;;;;;;5052466;28;20390;-57
2022/03/06 02:27:26;;;;;;;78.60;35.35;;;2.30;99.90;;;;;;5052320;28;20415;-57
2022/03/06 02:29:52;;;;;;;75.53;35.42;;;2.30;99.90;;;;;;5051844;28;20421;-57
2022/03/06 02:32:20;;;;;;;77.80;34.83;;;2.30;99.90;;;;;;5051960;28;20049;-57
2022/03/06 02:34:48;;;;;;;77.30;34.88;;;2.30;99.90;;;;;;5052103;28;20112;-57
2022/03/06 02:37:17;;;;;;;78.70;34.97;;;2.20;99.90;;;;;;5052223;28;20108;-56
2022/03/06 02:39:46;;;;;;;72.70;35.22;;;2.20;99.90;;;;;;5052015;28;20033;-57
2022/03/06 02:42:28;;;;;;;79.68;34.53;;;2.20;99.90;;;;;;5051677;28;20079;-57
2022/03/06 02:44:58;;;;;;;82.45;35.08;;;2.20;99.90;;;;;;5052192;28;20022;-56
2022/03/06 02:47:24;;;;;;;70.38;33.50;;;2.20;99.90;;;;;;5051637;28;20021;-56
2022/03/06 02:49:51;;;;;;;80.95;35.70;;;2.20;99.90;;;;;;5052226;28;20025;-56
2022/03/06 02:52:17;;;;;;;79.50;33.53;;;2.10;99.90;;;;;;5051797;28;20474;-56
2022/03/06 02:54:42;;;;;;;80.35;35.10;;;2.10;99.90;;;;;;5051826;28;20095;-56
2022/03/06 02:57:09;;;;;;;82.15;35.90;;;2.10;99.90;;;;;;5051449;28;20021;-56
2022/03/06 02:59:35;;;;;;;83.18;34.25;;;2.10;99.90;;;;;;5051333;28;20347;-57
2022/03/06 03:02:01;;;;;;;76.78;35.30;;;2.00;99.90;;;;;;5052028;28;20021;-56
2022/03/06 03:04:27;;;;;;;76.85;35.08;;;2.00;99.90;;;;;;5052154;28;20051;-56
2022/03/06 03:06:53;;;;;;;78.25;34.58;;;2.00;99.90;;;;;;5049989;28;20021;-56
2022/03/06 03:09:20;;;;;;;85.45;36.20;;;1.90;99.90;;;;;;5051620;28;20067;-56
2022/03/06 03:11:54;;;;;;;80.68;34.50;;;1.90;99.90;;;;;;5051803;28;20021;-56
2022/03/06 03:14:20;;;;;;;81.32;35.30;;;1.90;99.90;;;;;;5049822;28;20033;-56
2022/03/06 03:16:46;;;;;;;79.18;36.63;;;1.90;99.90;;;;;;5051543;28;20371;-57
2022/03/06 03:19:13;;;;;;;77.18;34.10;;;1.90;99.90;;;;;;5050966;28;20036;-57
2022/03/06 03:21:39;;;;;;;75.00;33.35;;;1.90;99.90;;;;;;5051274;28;20447;-56
2022/03/06 03:24:05;;;;;;;76.85;35.63;;;1.80;99.90;;;;;;5051118;28;20112;-56
2022/03/06 03:26:34;;;;;;;70.90;34.22;;;1.80;99.90;;;;;;5050652;28;20453;-56
2022/03/06 03:29:02;;;;;;;80.78;33.88;;;1.80;99.90;;;;;;5050960;28;20053;-56
2022/03/06 03:31:28;;;;;;;75.75;34.40;;;1.80;99.90;;;;;;5050963;28;20045;-56
2022/03/06 03:33:53;;;;;;;74.10;34.55;;;1.80;99.90;;;;;;5051656;28;20448;-56
2022/03/06 03:36:20;;;;;;;71.05;33.92;;;1.80;99.90;;;;;;5051092;28;20045;-56
2022/03/06 03:38:46;;;;;;;70.15;31.60;;;1.90;99.90;;;;;;5050423;28;20083;-56
2022/03/06 03:41:12;;;;;;;76.63;34.45;;;1.90;99.90;;;;;;5050889;28;20049;-57
2022/03/06 03:43:38;;;;;;;70.90;31.45;;;1.90;99.90;;;;;;5050325;28;20029;-56
2022/03/06 03:46:06;;;;;;;69.30;31.75;;;1.90;99.90;;;;;;5050405;28;20029;-56
2022/03/06 03:48:32;;;;;;;71.05;33.40;;;1.90;99.90;;;;;;5050307;28;20372;-56
2022/03/06 03:50:58;;;;;;;69.65;32.97;;;1.90;99.90;;;;;;5050627;28;20389;-56
2022/03/06 03:53:23;;;;;;;71.15;32.83;;;1.90;99.90;;;;;;5050376;28;20029;-56
2022/03/06 03:55:50;;;;;;;73.63;32.58;;;1.90;99.90;;;;;;5050177;28;20112;-56
2022/03/06 03:58:16;;;;;;;70.43;31.75;;;1.90;99.90;;;;;;5050241;28;20105;-56
2022/03/06 04:00:43;;;;;;;68.50;31.52;;;1.90;99.90;;;;;;5050445;28;20087;-56
2022/03/06 04:03:09;;;;;;;68.13;32.92;;;1.90;99.90;;;;;;5050490;28;20029;-56
2022/03/06 04:05:35;;;;;;;68.15;31.17;;;1.90;99.90;;;;;;5050533;28;20029;-56
2022/03/06 04:08:01;;;;;;;67.15;30.33;;;1.90;99.90;;;;;;5050173;28;20028;-56
2022/03/06 04:10:27;;;;;;;65.93;29.88;;;1.90;99.90;;;;;;5050078;28;20043;-57
2022/03/06 04:12:52;;;;;;;71.72;32.17;;;1.90;99.90;;;;;;5048751;28;20396;-56
2022/03/06 04:15:18;;;;;;;70.13;31.95;;;1.80;99.90;;;;;;5050340;28;20036;-56
2022/03/06 04:17:43;;;;;;;65.75;30.63;;;1.80;99.90;;;;;;5049177;28;20025;-56
2022/03/06 04:20:09;;;;;;;66.00;31.08;;;1.80;99.90;;;;;;5050365;28;20545;-56
2022/03/06 04:22:35;;;;;;;63.83;30.20;;;1.80;99.90;;;;;;5049654;28;20025;-56
2022/03/06 04:25:01;;;;;;;69.45;31.73;;;1.80;99.90;;;;;;5050415;28;20390;-56
2022/03/06 04:27:26;;;;;;;63.90;30.65;;;1.70;99.90;;;;;;5051061;28;20029;-56
2022/03/06 04:29:52;;;;;;;72.13;32.13;;;1.80;99.90;;;;;;5050336;28;20080;-56
2022/03/06 04:32:18;;;;;;;65.53;30.90;;;1.70;99.90;;;;;;5050228;28;20422;-57
2022/03/06 04:34:43;;;;;;;64.70;30.90;;;1.70;99.90;;;;;;5050479;28;20037;-57
2022/03/06 04:37:09;;;;;;;61.15;29.45;;;1.70;99.90;;;;;;5050040;28;20474;-56
2022/03/06 04:39:35;;;;;;;63.50;29.58;;;1.70;99.90;;;;;;5050052;28;20116;-56
2022/03/06 04:42:00;;;;;;;63.45;30.52;;;1.70;99.90;;;;;;5050213;28;20359;-56
2022/03/06 04:44:26;;;;;;;62.35;29.85;;;1.70;99.90;;;;;;5050655;28;20072;-56
2022/03/06 04:46:52;;;;;;;65.32;30.38;;;1.60;99.90;;;;;;5050101;28;20021;-56
2022/03/06 04:49:17;;;;;;;65.35;30.45;;;1.60;99.90;;;;;;5049855;28;20056;-58
2022/03/06 04:51:43;;;;;;;63.58;29.70;;;1.60;99.90;;;;;;5049656;28;20034;-57
2022/03/06 04:54:09;;;;;;;69.03;31.20;;;1.60;99.90;;;;;;5049794;28;20112;-57
2022/03/06 04:56:35;;;;;;;67.50;31.67;;;1.50;99.90;;;;;;5049665;28;20029;-57
2022/03/06 04:59:01;;;;;;;64.35;29.15;;;1.50;99.90;;;;;;5049642;28;20032;-57
2022/03/06 05:01:27;;;;;;;60.92;29.05;;;1.50;99.90;;;;;;5049630;28;20458;-58
2022/03/06 05:03:53;;;;;;;66.47;31.23;;;1.50;99.90;;;;;;5049850;28;20025;-57
2022/03/06 05:06:18;;;;;;;61.47;29.77;;;1.40;99.90;;;;;;5049500;28;20108;-57
2022/03/06 05:08:44;;;;;;;63.70;30.33;;;1.40;99.90;;;;;;5052149;28;20028;-57
2022/03/06 05:11:10;;;;;;;63.28;30.17;;;1.40;99.90;;;;;;5051926;28;20021;-57
2022/03/06 05:13:36;;;;;;;65.15;30.38;;;1.40;99.90;;;;;;5053407;28;20454;-57
2022/03/06 05:16:03;;;;;;;62.35;29.75;;;1.30;99.90;;;;;;5053233;28;20037;-57
2022/03/06 05:18:29;;;;;;;64.00;29.30;;;1.30;99.90;;;;;;5053988;28;20024;-57
2022/03/06 05:20:55;;;;;;;61.58;28.45;;;1.30;99.90;;;;;;5056378;28;20398;-57
2022/03/06 05:23:21;;;;;;;63.65;29.58;;;1.30;99.90;;;;;;5057440;28;20035;-57
2022/03/06 05:25:47;;;;;;;64.45;29.75;;;1.30;99.90;;;;;;5057346;28;20021;-57
2022/03/06 05:28:13;;;;;;;67.38;29.95;;;1.20;99.90;;;;;;5057203;28;20021;-57
2022/03/06 05:30:38;;;;;;;67.10;29.50;;;1.20;99.90;;;;;;5056702;28;20068;-57
2022/03/06 05:33:04;;;;;;;61.38;29.02;;;1.20;99.90;;;;;;5057376;28;20032;-57
2022/03/06 05:35:30;;;;;;;59.00;28.80;;;1.20;99.90;;;;;;5056926;28;20021;-57
2022/03/06 05:37:56;;;;;;;57.60;28.73;;;1.20;99.90;;;;;;5057535;28;20043;-57
2022/03/06 05:40:21;;;;;;;63.88;29.55;;;1.20;99.90;;;;;;5056639;28;20454;-57
2022/03/06 05:42:48;;;;;;;65.68;29.45;;;1.10;99.90;;;;;;5057081;28;20063;-57
2022/03/06 05:45:13;;;;;;;58.65;28.45;;;1.10;99.90;;;;;;5056870;28;20097;-57
2022/03/06 05:47:39;;;;;;;56.78;28.48;;;1.10;99.90;;;;;;5057300;28;20021;-57
2022/03/06 05:50:07;;;;;;;65.80;29.35;;;1.10;99.90;;;;;;5056832;28;20063;-57
2022/03/06 05:52:33;;;;;;;62.50;29.10;;;1.10;99.90;;;;;;5056929;28;20029;-57
2022/03/06 05:54:58;;;;;;;60.03;28.80;;;1.10;99.90;;;;;;5057258;28;20493;-57
2022/03/06 05:57:24;;;;;;;60.22;29.17;;;1.10;99.90;;;;;;5056728;28;20021;-57
2022/03/06 05:59:52;;;;;;;62.40;28.13;;;1.10;99.90;;;;;;5056869;28;20439;-57
2022/03/06 06:02:19;;;;;;;66.13;29.00;;;1.00;99.90;;;;;;5056651;28;20028;-57
2022/03/06 06:04:45;;;;;;;61.65;29.38;;;1.00;99.90;;;;;;5056810;28;20029;-57
2022/03/06 06:07:11;;;;;;;59.72;28.67;;;1.00;99.90;;;;;;5056671;28;20104;-57
2022/03/06 06:09:37;;;;;;;64.22;29.27;;;1.00;99.90;;;;;;5057397;28;20497;-58
2022/03/06 06:12:03;;;;;;;56.28;28.35;;;1.00;99.90;;;;;;5056377;28;20053;-57
2022/03/06 06:14:28;;;;;;;61.08;29.55;;;1.00;99.90;;;;;;5056848;28;20040;-57
2022/03/06 06:16:54;;;;;;;53.45;26.98;;;1.00;99.90;;;;;;5056440;28;20033;-57
2022/03/06 06:19:20;;;;;;;58.35;28.55;;;1.00;99.90;;;;;;5055726;28;20021;-57
2022/03/06 06:21:46;;;;;;;60.45;27.98;;;1.00;99.90;;;;;;5056621;28;20100;-57
2022/03/06 06:24:13;;;;;;;58.53;27.70;;;1.00;99.90;;;;;;5057126;28;20028;-57
2022/03/06 06:26:43;;;;;;;57.67;27.52;;;1.00;99.90;;;;;;5056475;28;20029;-57
2022/03/06 06:29:13;;;;;;;58.15;27.75;;;1.00;99.90;;;;;;5052492;28;20483;-57
2022/03/06 06:31:38;;;;;;;59.05;27.90;;;1.00;99.90;;;;;;5051965;28;20053;-57
2022/03/06 06:34:04;;;;;;;60.83;27.98;;;1.00;99.90;;;;;;5052270;28;20036;-57
2022/03/06 06:36:30;;;;;;;57.38;28.98;;;1.10;99.90;;;;;;5052284;28;20051;-57
2022/03/06 06:38:56;;;;;;;59.55;28.88;;;1.10;99.90;;;;;;5052339;28;20032;-56
2022/03/06 06:41:21;;;;;;;54.72;27.23;;;1.10;99.90;;;;;;5051974;28;20025;-56
2022/03/06 06:43:47;;;;;;;57.20;27.80;;;1.20;99.90;;;;;;5052146;28;20112;-57
2022/03/06 06:46:13;;;;;;;56.63;28.98;;;1.20;99.90;;;;;;5051756;28;20025;-57
2022/03/06 06:48:39;;;;;;;60.17;28.55;;;1.20;99.90;;;;;;5051991;28;20309;-57
2022/03/06 06:51:07;;;;;;;54.00;26.85;;;1.20;99.90;;;;;;5052271;28;20520;-57
2022/03/06 06:53:33;;;;;;;53.65;27.30;;;1.20;99.90;;;;;;5050576;28;20029;-57
2022/03/06 06:55:58;;;;;;;54.50;28.02;;;1.20;99.90;;;;;;5051947;28;20025;-57
2022/03/06 06:58:24;;;;;;;58.63;26.77;;;1.30;99.90;;;;;;5051508;28;20017;-57
2022/03/06 07:00:49;;;;;;;54.83;27.52;;;1.30;99.90;;;;;;5051374;28;20029;-57
2022/03/06 07:03:15;;;;;;;54.80;27.95;;;1.40;99.90;;;;;;5050824;28;20029;-57
2022/03/06 07:05:45;;;;;;;57.08;27.70;;;1.40;99.90;;;;;;5050934;28;20424;-56
2022/03/06 07:08:11;;;;;;;51.72;27.50;;;1.40;99.90;;;;;;5050980;28;20024;-56
2022/03/06 07:10:37;;;;;;;55.13;28.00;;;1.50;99.90;;;;;;5051634;28;20032;-56
2022/03/06 07:13:03;;;;;;;50.25;24.73;;;1.50;99.90;;;;;;5051010;28;20037;-57
2022/03/06 07:15:32;;;;;;;53.53;26.98;;;1.50;99.90;;;;;;5051226;28;20027;-57
2022/03/06 07:18:02;;;;;;;58.47;27.35;;;1.60;99.90;;;;;;5051104;28;20013;-57
2022/03/06 07:20:29;;;;;;;51.97;26.33;;;1.70;99.90;;;;;;5051138;28;20536;-57
2022/03/06 07:22:55;;;;;;;50.40;25.15;;;1.70;99.90;;;;;;5051029;28;20028;-57
2022/03/06 07:25:21;;;;;;;49.35;25.60;;;1.80;99.90;;;;;;5050986;28;20436;-57
2022/03/06 07:27:46;;;;;;;51.45;26.38;;;1.80;99.90;;;;;;5050735;28;20033;-57
2022/03/06 07:30:12;;;;;;;50.95;25.90;;;1.90;99.90;;;;;;5050596;28;20044;-57
2022/03/06 07:32:46;;;;;;;50.80;25.75;;;2.00;99.90;;;;;;5050315;28;20116;-57
2022/03/06 07:35:13;;;;;;;47.72;24.80;;;2.10;99.90;;;;;;5050672;28;20485;-57
2022/03/06 07:37:39;;;;;;;49.42;26.95;;;2.20;99.90;;;;;;5050306;28;20024;-57
2022/03/06 07:40:05;;;;;;;47.80;25.67;;;2.10;99.90;;;;;;5050296;28;20033;-57
2022/03/06 07:42:31;;;;;;;49.10;26.70;;;2.20;99.90;;;;;;5050832;28;20330;-57
2022/03/06 07:44:57;;;;;;;45.13;24.98;;;2.30;99.90;;;;;;5050703;28;20020;-57
2022/03/06 07:47:23;;;;;;;44.80;24.27;;;2.40;99.90;;;;;;5050712;28;20025;-57
2022/03/06 07:49:48;;;;;;;48.35;25.80;;;2.50;99.90;;;;;;5050062;28;20486;-57
2022/03/06 07:52:14;;;;;;;45.42;25.40;;;2.50;99.90;;;;;;5050338;28;20029;-57
2022/03/06 07:54:39;;;;;;;48.28;26.83;;;2.60;99.90;;;;;;5050759;28;20086;-57
2022/03/06 07:57:05;;;;;;;42.90;23.70;;;2.70;99.90;;;;;;5050407;28;20021;-57
2022/03/06 07:59:31;;;;;;;45.25;23.10;;;2.80;99.90;;;;;;5050630;28;20021;-57
2022/03/06 08:01:56;;;;;;;52.33;30.50;;;2.70;99.90;;;;;;5050780;28;20533;-57
2022/03/06 08:04:22;;;;;;;45.65;25.05;;;2.70;99.90;;;;;;5050683;28;20047;-57
2022/03/06 08:06:48;;;;;;;42.80;24.58;;;2.80;99.90;;;;;;5048936;28;20028;-57
2022/03/06 08:09:14;;;;;;;43.00;23.80;;;2.90;99.90;;;;;;5050487;28;20428;-56
2022/03/06 08:11:40;;;;;;;44.65;24.30;;;3.00;99.90;;;;;;5051058;28;20470;-56
2022/03/06 08:14:05;;;;;;;51.90;25.83;;;2.90;99.90;;;;;;5050591;28;20029;-56
2022/03/06 08:16:31;;;;;;;44.78;23.55;;;2.90;99.90;;;;;;5050624;28;20508;-56
2022/03/06 08:18:57;;;;;;;41.58;24.58;;;2.90;99.90;;;;;;5050190;28;20036;-57
2022/03/06 08:21:22;;;;;;;39.55;23.83;;;3.20;99.90;;;;;;5050156;28;20025;-57
2022/03/06 08:23:49;;;;;;;41.30;23.15;;;4.00;99.90;;;;;;5050446;28;20029;-57
2022/03/06 08:26:15;;;;;;;37.63;21.88;;;5.00;99.90;;;;;;5050083;28;20025;-57
2022/03/06 08:28:41;;;;;;;35.25;21.67;;;5.90;99.90;;;;;;5048417;28;20036;-57
2022/03/06 08:31:06;;;;;;;33.22;20.90;;;6.70;99.90;;;;;;5050064;28;20506;-57
2022/03/06 08:33:32;;;;;;;34.35;20.55;;;7.20;99.90;;;;;;5050206;28;20469;-57
2022/03/06 08:35:58;;;;;;;32.00;20.88;;;7.70;99.90;;;;;;5049779;28;20021;-57
2022/03/06 08:38:23;;;;;;;34.97;20.15;;;8.00;99.90;;;;;;5049603;28;20017;-57
2022/03/06 08:40:49;;;;;;;30.10;20.02;;;8.30;99.90;;;;;;5050086;28;20032;-57
2022/03/06 08:43:15;;;;;;;29.77;19.90;;;8.30;99.90;;;;;;5052346;28;20546;-57
2022/03/06 08:45:41;;;;;;;32.10;21.10;;;8.40;99.90;;;;;;5053972;28;20104;-57
2022/03/06 08:48:06;;;;;;;34.25;21.23;;;8.80;99.90;;;;;;5053782;28;20394;-57
2022/03/06 08:50:32;;;;;;;29.00;20.50;;;8.90;99.30;;;;;;5054355;28;20108;-57
2022/03/06 08:52:58;;;;;;;31.15;21.00;;;8.50;99.90;;;;;;5053905;28;20029;-57
2022/03/06 08:55:24;;;;;;;26.85;19.35;;;8.50;99.80;;;;;;5053571;28;20026;-57
2022/03/06 08:57:49;;;;;;;30.45;20.23;;;8.70;99.90;;;;;;5053665;28;20125;-57
2022/03/06 09:00:15;;;;;;;30.73;20.13;;;8.50;99.90;;;;;;5053690;28;20502;-57
2022/03/06 09:02:41;;;;;;;34.95;20.55;;;8.20;99.90;;;;;;5053431;28;20497;-57
2022/03/06 09:05:07;;;;;;;30.88;19.67;;;8.10;99.90;;;;;;5053496;28;20237;-57
2022/03/06 09:07:32;;;;;;;29.42;20.00;;;8.30;99.90;;;;;;5051586;28;20040;-57
2022/03/06 09:09:58;;;;;;;39.65;20.02;;;8.30;99.90;;;;;;5053677;28;20025;-57
2022/03/06 09:12:26;;;;;;;28.67;19.88;;;8.40;99.90;;;;;;5053272;28;20089;-57
2022/03/06 09:14:55;;;;;;;31.25;20.38;;;8.40;99.60;;;;;;5053185;28;20021;-57
2022/03/06 09:17:21;;;;;;;28.52;19.67;;;8.40;99.60;;;;;;5053338;28;20079;-57
2022/03/06 09:19:49;;;;;;;28.10;18.80;;;9.00;98.80;;;;;;5053150;28;20017;-57
2022/03/06 09:22:15;;;;;;;29.90;19.27;;;9.10;98.20;;;;;;5052938;28;20562;-57
2022/03/06 09:24:41;;;;;;;27.10;19.00;;;9.10;98.10;;;;;;5053436;28;20103;-57
2022/03/06 09:27:06;;;;;;;25.88;17.92;;;9.60;97.30;;;;;;5052895;28;20055;-57
2022/03/06 09:29:32;;;;;;;27.13;18.35;;;9.70;96.40;;;;;;5056302;28;20103;-57
2022/03/06 09:31:57;;;;;;;27.95;18.48;;;9.50;96.30;;;;;;5059096;28;20468;-57
2022/03/06 09:34:23;;;;;;;27.88;18.63;;;9.50;96.40;;;;;;5053257;28;20079;-57
2022/03/06 09:36:49;;;;;;;27.95;17.90;;;9.70;96.10;;;;;;5052779;28;20292;-57
2022/03/06 09:39:15;;;;;;;24.80;18.00;;;10.10;95.70;;;;;;5052429;28;20075;-57
2022/03/06 09:41:41;;;;;;;26.10;18.40;;;9.60;95.60;;;;;;5052969;28;20441;-57
2022/03/06 09:44:10;;;;;;;29.17;18.70;;;9.10;96.30;;;;;;5052828;28;20029;-57
2022/03/06 09:46:37;;;;;;;26.30;18.10;;;9.10;96.00;;;;;;5052813;28;20111;-57
2022/03/06 09:49:05;;;;;;;25.73;18.75;;;9.30;95.80;;;;;;5050725;28;20552;-57
2022/03/06 09:51:38;;;;;;;25.15;18.38;;;9.30;95.80;;;;;;5052042;28;20795;-57
2022/03/06 09:54:05;;;;;;;25.38;19.20;;;9.70;95.20;;;;;;5051337;28;20119;-57
2022/03/06 09:56:31;;;;;;;25.35;18.15;;;9.70;95.20;;;;;;5052143;28;20487;-58
2022/03/06 09:58:56;;;;;;;27.75;19.02;;;9.80;95.60;;;;;;5052126;28;20100;-57
2022/03/06 10:01:22;;;;;;;26.83;18.35;;;10.40;94.80;;;;;;5052176;28;20047;-57
2022/03/06 10:03:48;;;;;;;26.30;19.13;;;10.50;93.80;;;;;;5052390;28;20036;-57
2022/03/06 10:06:14;;;;;;;26.33;18.65;;;10.80;93.70;;;;;;5050675;28;20029;-57
2022/03/06 10:08:39;;;;;;;26.00;19.20;;;10.80;92.80;;;;;;5052214;28;20092;-57
2022/03/06 10:11:08;;;;;;;25.90;18.33;;;10.60;92.80;;;;;;5052017;28;20028;-57
2022/03/06 10:13:45;;;;;;;28.40;18.85;;;10.90;92.40;;;;;;5052184;28;20033;-57
2022/03/06 10:16:19;;;;;;;25.30;18.10;;;11.00;92.00;;;;;;5050661;28;20020;-58
2022/03/06 10:18:52;;;;;;;26.25;18.27;;;11.30;92.00;;;;;;5051430;28;20017;-58
2022/03/06 10:21:21;;;;;;;27.17;18.05;;;11.50;91.50;;;;;;5052068;28;20033;-58
2022/03/06 10:23:50;;;;;;;26.70;18.58;;;11.60;91.40;;;;;;5050418;28;20025;-58
2022/03/06 10:26:18;;;;;;;26.00;18.42;;;11.60;90.50;;;;;;5051843;28;20078;-58
2022/03/06 10:29:01;;;;;;;28.95;17.77;;;11.50;90.00;;;;;;5051918;28;20474;-58
2022/03/06 10:31:29;;;;;;;24.77;17.33;;;11.30;90.00;;;;;;5051624;28;20107;-62
2022/03/06 10:34:08;;;;;;;24.90;18.55;;;11.70;89.40;;;;;;5051836;28;20384;-58
2022/03/06 10:36:52;;;;;;;29.65;17.92;;;11.60;90.40;;;;;;5051418;28;20036;-58
2022/03/06 10:39:20;;;;;;;25.65;18.58;;;11.90;88.60;;;;;;5051547;28;20032;-58
2022/03/06 10:41:49;;;;;;;25.98;18.85;;;12.00;87.30;;;;;;5051460;28;20029;-58
2022/03/06 10:44:17;;;;;;;22.92;17.73;;;11.80;87.30;;;;;;5051328;28;20429;-58
2022/03/06 10:47:04;;;;;;;24.73;17.75;;;12.10;87.70;;;;;;5051128;28;20036;-58
2022/03/06 10:49:30;;;;;;;27.02;18.63;;;11.30;86.90;;;;;;5051036;28;20114;-58
2022/03/06 10:51:55;;;;;;;21.48;16.85;;;11.60;87.90;;;;;;5049555;28;20035;-58
2022/03/06 10:54:22;;;;;;;25.45;18.58;;;12.00;86.00;;;;;;5051383;28;20021;-58
2022/03/06 10:56:50;;;;;;;27.48;18.98;;;11.90;85.10;;;;;;5051377;28;20013;-57
2022/03/06 10:59:25;;;;;;;24.30;18.10;;;11.60;86.40;;;;;;5050856;28;20037;-58
2022/03/06 11:01:51;;;;;;;23.48;18.10;;;12.40;86.00;;;;;;5051420;28;20033;-58
2022/03/06 11:04:19;;;;;;;29.35;18.73;;;12.80;82.50;;;;;;5051229;28;20025;-58
2022/03/06 11:06:46;;;;;;;24.50;18.42;;;12.80;82.40;;;;;;5050860;28;20029;-58
2022/03/06 11:09:18;;;;;;;26.38;18.73;;;12.60;81.50;;;;;;5051503;28;20029;-58
2022/03/06 11:11:50;;;;;;;;;;;12.90;81.00;;;;;;5051049;28;20025;-58
2022/03/06 11:14:16;;;;;;;24.30;17.50;;;13.10;80.00;;;;;;5064976;28;19968;-58
2022/03/06 11:16:42;;;;;;;23.33;17.67;;;13.40;80.90;;;;;;5053040;28;20021;-58
2022/03/06 11:19:09;;;;;;;25.60;17.80;;;13.70;81.00;;;;;;5049237;28;20569;-58
2022/03/06 11:21:39;;;;;;;23.83;18.30;;;14.00;79.00;;;;;;5050315;28;20056;-58
2022/03/06 11:24:16;;;;;;;24.08;18.27;;;14.20;77.20;;;;;;5050380;28;20055;-58
2022/03/06 11:27:09;;;;;;;23.50;17.63;;;14.00;77.50;;;;;;5050760;28;20043;-58
2022/03/06 11:29:53;;;;;;;;;;;14.10;75.90;;;;;;5051278;28;20021;-58
2022/03/06 11:32:31;;;;;;;23.23;17.08;;;14.00;78.00;;;;;;5050833;28;19923;-58
2022/03/06 11:35:10;;;;;;;23.08;16.13;;;14.00;76.70;;;;;;5050962;28;20052;-58
2022/03/06 11:38:06;;;;;;;31.80;19.70;;;14.20;76.30;;;;;;5050658;28;20107;-58
2022/03/06 11:40:52;;;;;;;24.20;17.15;;;13.70;75.80;;;;;;5044901;28;20108;-58
2022/03/06 11:43:33;;;;;;;20.10;15.13;;;13.40;76.80;;;;;;5050419;28;20029;-58
2022/03/06 11:45:59;;;;;;;23.13;15.13;;;13.40;75.90;;;;;;5049523;28;20058;-57
2022/03/06 11:48:33;;;;;;;17.58;14.70;;;13.10;75.00;;;;;;5050483;28;20660;-58
2022/03/06 11:51:21;;;;;;;16.48;13.90;;;13.10;76.60;;;;;;5050285;28;20071;-58
2022/03/06 11:54:01;;;;;;;19.20;14.85;;;14.00;74.80;;;;;;5050480;28;20082;-58
2022/03/06 11:56:39;;;;;;;20.10;14.85;;;14.00;73.60;;;;;;5050140;28;20044;-57
2022/03/06 11:59:22;;;;;;;19.50;15.20;;;13.90;73.00;;;;;;5050192;28;20032;-58
2022/03/06 12:01:54;;;;;;;16.05;12.90;;;13.50;75.50;;;;;;5050113;28;20298;-58
2022/03/06 12:04:25;;;;;;;23.40;14.38;;;13.60;73.00;;;;;;5049941;28;20021;-58
2022/03/06 12:06:55;;;;;;;17.08;13.55;;;14.40;71.30;;;;;;5050077;28;20029;-58
2022/03/06 12:09:32;;;;;;;21.85;14.25;;;14.00;69.70;;;;;;5050159;28;20051;-58
2022/03/06 12:12:01;;;;;;;18.65;13.25;;;13.90;71.70;;;;;;5048894;28;20025;-57
2022/03/06 12:14:35;;;;;;;18.13;14.48;;;13.70;73.60;;;;;;5049759;28;20037;-57
2022/03/06 12:17:01;;;;;;;17.00;14.32;;;14.10;70.50;;;;;;5050019;28;20017;-57
2022/03/06 12:19:28;;;;;;;18.55;13.57;;;13.80;72.50;;;;;;5053893;28;20513;-58
2022/03/06 12:22:11;;;;;;;18.13;13.52;;;14.00;70.90;;;;;;5054116;28;20033;-58
2022/03/06 12:24:39;;;;;;;16.00;13.38;;;14.10;69.70;;;;;;5054350;28;20021;-58
2022/03/06 12:27:25;;;;;;;20.92;13.55;;;13.90;68.90;;;;;;5052235;28;20090;-57
2022/03/06 12:29:58;;;;;;;17.10;13.35;;;14.00;70.00;;;;;;5053622;28;20094;-58
2022/03/06 12:35:02;;;;;;;18.80;14.75;;;15.30;67.20;;;;;;5053528;28;20039;-59
2022/03/06 12:37:38;;;;;;;18.20;13.80;;;15.10;66.40;;;;;;5057645;28;20271;-58
2022/03/06 12:40:13;;;;;;;19.05;14.40;;;14.80;66.00;;;;;;5067253;28;20013;-59